• Join FlightAware (Why Join?)
  • Login
  • US Flag 
12:51PM EST


 

Airport Tracker/Info


-or-


 

Live Flight TrackerFlight Track Log ✈ VH-CZH ✈ 05-Jul-2014 ✈ YPJT / JAD - YPJT / JAD

Flight Track Log - Related Links

Times and Time Zones

All times are in EDT time to prevent confusion due to time zone crossing. See the VH-CZH flight status page for this flight to view local times or setup timezone preferences in your user account.

Time Position Orientation Groundspeed Altitude Reporting Facility
EDT Latitude Longitude Course Direction KTS MPH feet Rate Location/Type
03:09AM -32.0842 115.8976 300° West 90 104 800  Level Aus ATC (RADAR)
03:10AM -32.0759 115.8806 300° West 98 113 1,400 876 Climbing Aus ATC (RADAR)
03:11AM -32.0824 115.8555 253° West 105 121 2,100 1,029 Climbing Aus ATC (RADAR)
03:11AM -32.0885 115.8427 241° Southwest 108 124 2,600 900 Climbing Aus ATC (RADAR)
03:12AM -32.1076 115.8402 186° South 119 137 3,000 324 Climbing Aus ATC (RADAR)
03:13AM -32.1317 115.8447 171° South 131 151 3,000  Level Aus ATC (RADAR)
03:13AM -32.1405 115.8740 109° East 123 142 3,000  Level Aus ATC (RADAR)
03:14AM -32.1382 115.8901 81° East 119 137 3,000  Level Aus ATC (RADAR)
03:14AM -32.1243 115.9052 42° Northeast 116 133 3,000 -67 Level Aus ATC (RADAR)
03:15AM -32.0989 115.9185 24° Northeast 106 122 2,900 -343 Descending Aus ATC (RADAR)
03:16AM -32.0754 115.9258 15° North 105 121 2,400 -560 Descending Aus ATC (RADAR)
03:17AM -32.0636 115.9297 15° North 105 121 2,200 -545 Descending Aus ATC (RADAR)
03:17AM -32.0494 115.9332 12° North 104 120 1,900 -646 Descending Aus ATC (RADAR)
03:18AM -32.0329 115.9383 15° North 105 121 1,500 -600 Descending Aus ATC (RADAR)
03:18AM -32.0118 115.9446 14° North 103 119 1,100 -450 Descending Aus ATC (RADAR)
03:19AM -31.9960 115.9491 13° North 100 115 900 71 Descending Aus ATC (RADAR)
03:20AM -31.9754 115.9579 20° North 96 110 1,200 568 Climbing Aus ATC (RADAR)
03:20AM -31.9743 115.9718 85° East 99 114 1,600 800 Climbing Aus ATC (RADAR)
03:21AM -31.9779 115.9926 102° East 104 120 2,000 706 Climbing Aus ATC (RADAR)
03:22AM -31.9823 116.0229 100° East 107 123 2,600 730 Climbing Aus ATC (RADAR)
03:22AM -31.9846 116.0387 100° East 111 128 2,900 500 Climbing Aus ATC (RADAR)
03:23AM -32.0014 116.0510 148° Southeast 129 148 3,100  Climbing Aus ATC (RADAR)
03:23AM -32.0328 116.0487 184° South 135 155 2,900 -141 Descending Aus ATC (RADAR)
03:24AM -32.0528 116.0405 199° South 130 150 2,900 -71 Level Aus ATC (RADAR)
03:25AM -32.0807 116.0272 202° Southwest 131 151 2,800  Descending Aus ATC (RADAR)
03:25AM -32.0924 116.0183 213° Southwest 128 147 2,900  Climbing Aus ATC (RADAR)
03:26AM -32.0973 115.9972 255° West 115 132 2,800  Descending Aus ATC (RADAR)
03:27AM -32.1091 115.9732 240° Southwest 115 132 2,900 86 Climbing Aus ATC (RADAR)
03:27AM -32.1184 115.9608 229° Southwest 119 137 2,900 300 Level Aus ATC (RADAR)
03:28AM -32.1304 115.9437 230° Southwest 115 132 3,200 750 Climbing Aus ATC (RADAR)
03:28AM -32.1454 115.9225 230° Southwest 113 130 3,900 635 Climbing Aus ATC (RADAR)
03:29AM -32.1585 115.9025 232° Southwest 115 132 4,100  Climbing Aus ATC (RADAR)
03:30AM -32.1733 115.8758 237° Southwest 116 133 3,900 -94 Descending Aus ATC (RADAR)
03:30AM -32.1810 115.8710 208° Southwest 120 138 4,000  Climbing Aus ATC (RADAR)
03:31AM -32.2036 115.8717 178° South 135 155 3,900 -63 Descending Aus ATC (RADAR)
03:32AM -32.2318 115.8918 149° Southeast 136 157 3,900 67 Level Aus ATC (RADAR)
03:32AM -32.2225 115.9099 58° Northeast 125 144 4,000 94 Climbing Aus ATC (RADAR)
03:33AM -32.2037 115.9136 North 115 132 4,000  Level Aus ATC (RADAR)
03:33AM -32.1822 115.9163 North 117 135 4,000  Level Aus ATC (RADAR)
03:34AM -32.1606 115.9196 North 118 136 4,000  Level Aus ATC (RADAR)
03:35AM -32.1363 115.9213 North 114 131 4,000  Level Aus ATC (RADAR)
03:35AM -32.1312 115.9078 294° West 108 124 4,000  Level Aus ATC (RADAR)
03:36AM -32.1468 115.8928 219° Southwest 124 143 4,000 -424 Level Aus ATC (RADAR)
03:37AM -32.1768 115.8849 193° South 132 152 3,400 -600 Descending Aus ATC (RADAR)
03:37AM -32.1950 115.8838 183° South 132 152 3,200 -369 Descending Aus ATC (RADAR)
03:38AM -32.1990 115.9064 102° East 125 144 3,000 -257 Descending Aus ATC (RADAR)
03:38AM -32.1818 115.9122 16° North 112 129 2,900  Descending Aus ATC (RADAR)
03:39AM -32.1621 115.9157 North 108 124 3,000 71 Climbing Aus ATC (RADAR)
03:40AM -32.1393 115.9199 North 110 127 3,000  Level Aus ATC (RADAR)
03:40AM -32.1238 115.9235 11° North 113 130 3,000 -281 Level Aus ATC (RADAR)
03:41AM -32.1059 115.9294 16° North 116 133 2,700 -380 Descending Aus ATC (RADAR)
03:42AM -32.0825 115.9342 10° North 113 130 2,500 -257 Descending Aus ATC (RADAR)
03:42AM -32.0703 115.9371 12° North 108 124 2,400 -600 Descending Aus ATC (RADAR)
03:43AM -32.0491 115.9412 North 103 119 1,800 -600 Descending Aus ATC (RADAR)
03:43AM -32.0377 115.9429 North 99 114 1,700 -462 Descending Aus ATC (RADAR)
03:44AM -32.0197 115.9450 North 98 113 1,300 -560 Descending Aus ATC (RADAR)
03:44AM -32.0039 115.9478 North 98 113 1,000 -514 Descending Aus ATC (RADAR)
03:45AM -31.9886 115.9521 14° North 98 113 700 -257 Descending Aus ATC (RADAR)
03:46AM -31.9742 115.9546 North 89 102 700 400 Level Aus ATC (RADAR)
03:46AM -31.9622 115.9649 36° Northeast 89 102 1,200 900 Climbing Aus ATC (RADAR)
03:47AM -31.9554 115.9841 67° East 91 105 1,900 918 Climbing Aus ATC (RADAR)
03:48AM -31.9487 116.0069 71° East 96 110 2,500 847 Climbing Aus ATC (RADAR)
03:48AM -31.9405 116.0269 64° Northeast 98 113 3,100 847 Climbing Aus ATC (RADAR)
03:49AM -31.9310 116.0521 66° East 108 124 3,700 800 Climbing Aus ATC (RADAR)
03:50AM -31.9237 116.0692 63° Northeast 112 129 4,100 831 Climbing Aus ATC (RADAR)
03:50AM -31.9159 116.0906 67° East 118 136 4,600 771 Climbing Aus ATC (RADAR)
03:51AM -31.9079 116.1124 67° East 121 139 5,000 514 Climbing Aus ATC (RADAR)
03:51AM -31.8995 116.1377 68° East 138 159 5,200  Climbing Aus ATC (RADAR)
03:52AM -31.8784 116.1801 60° Northeast 162 186 5,000 -150 Descending Aus ATC (RADAR)
03:53AM -31.8686 116.1997 59° Northeast 163 188 5,000 200 Level Aus ATC (RADAR)
03:53AM -31.8550 116.2266 59° Northeast 160 184 5,200 81 Climbing Aus ATC (RADAR)
03:54AM -31.8403 116.2582 61° Northeast 163 188 5,100 -162 Descending Aus ATC (RADAR)
03:54AM -31.8271 116.2857 61° Northeast 164 189 5,000 -171 Descending Aus ATC (RADAR)
03:55AM -31.8119 116.3126 56° Northeast 166 191 4,900 -86 Descending Aus ATC (RADAR)
03:56AM -31.7971 116.3381 56° Northeast 160 184 4,900  Level Aus ATC (RADAR)
03:56AM -31.7837 116.3658 60° Northeast 164 189 4,900  Level Aus ATC (RADAR)
03:57AM -31.7573 116.4140 57° Northeast 160 184 4,900  Level Aus ATC (RADAR)
03:58AM -31.7472 116.4329 58° Northeast 161 185 4,900  Level Aus ATC (RADAR)
03:58AM -31.7355 116.4555 59° Northeast 158 182 4,900  Level Aus ATC (RADAR)
03:59AM -31.7167 116.4947 61° Northeast 161 185 4,900  Level Aus ATC (RADAR)
04:00AM -31.7019 116.5215 57° Northeast 163 188 4,900  Level Aus ATC (RADAR)
04:00AM -31.6854 116.5579 62° Northeast 166 191 4,900  Level Aus ATC (RADAR)
04:01AM -31.6780 116.5794 68° East 167 192 4,900  Level Aus ATC (RADAR)
04:01AM -31.6723 116.6120 78° East 171 197 4,900  Level Aus ATC (RADAR)
04:02AM -31.6645 116.6684 81° East 169 194 4,900  Level Aus ATC (RADAR)
04:03AM -31.6627 116.6913 85° East 166 191 4,900  Level Aus ATC (RADAR)
04:03AM -31.6593 116.7197 82° East 170 196 4,900  Level Aus ATC (RADAR)
04:04AM -31.6509 116.7610 77° East 171 197 4,900  Level Aus ATC (RADAR)
04:05AM -31.6451 116.7929 78° East 167 192 4,900  Level Aus ATC (RADAR)
04:05AM -31.6405 116.8352 83° East 169 194 4,900  Level Aus ATC (RADAR)
04:06AM -31.6375 116.8587 81° East 169 194 4,900  Level Aus ATC (RADAR)
04:06AM -31.6329 116.8919 81° East 171 197 4,900  Level Aus ATC (RADAR)
04:07AM -31.6268 116.9481 83° East 170 196 4,900 -141 Level Aus ATC (RADAR)
04:08AM -31.6243 116.9708 82° East 166 191 4,700 -500 Descending Aus ATC (RADAR)
04:08AM -31.6198 117.0021 81° East 161 185 4,400 -450 Descending Aus ATC (RADAR)
04:09AM -31.6154 117.0415 83° East 157 181 4,100 -450 Descending Aus ATC (RADAR)
04:10AM -31.6213 117.0719 103° East 157 181 3,800 -522 Descending Aus ATC (RADAR)
04:10AM -31.6249 117.1023 98° East 157 181 3,500 -563 Descending Aus ATC (RADAR)
04:11AM -31.6269 117.1281 95° East 157 181 3,200 -462 Descending Aus ATC (RADAR)
04:11AM -31.6300 117.1586 97° East 159 183 3,000 -480 Descending Aus ATC (RADAR)
04:12AM -31.6268 117.1920 84° East 156 180 2,600 38 Descending Aus ATC (RADAR)
05:04AM -31.6262 117.2782 247° West 120 138 5,000 53 Climbing Aus ATC (RADAR)
05:05AM -31.6240 117.2603 278° West 93 107 5,400 771 Climbing Aus ATC (RADAR)
05:05AM -31.6257 117.2429 263° West 92 106 5,900 686 Climbing Aus ATC (RADAR)
05:06AM -31.6240 117.2232 276° West 103 119 6,200 75 Climbing Aus ATC (RADAR)
05:07AM -31.6251 117.1921 268° West 128 147 6,000 -174 Descending Aus ATC (RADAR)
05:07AM -31.6269 117.1748 263° West 128 147 6,000  Level Aus ATC (RADAR)
05:08AM -31.6287 117.1497 265° West 131 151 6,000  Level Aus ATC (RADAR)
05:09AM -31.6319 117.1170 263° West 132 152 6,000  Level Aus ATC (RADAR)
05:09AM -31.6378 117.0998 248° West 134 154 6,000  Level Aus ATC (RADAR)
05:10AM -31.6438 117.0749 254° West 134 154 6,000  Level Aus ATC (RADAR)
05:10AM -31.6494 117.0421 259° West 133 153 6,000 75 Level Aus ATC (RADAR)
05:11AM -31.6528 117.0176 261° West 130 150 6,100  Climbing Aus ATC (RADAR)
05:11AM -31.6577 116.9927 257° West 132 152 6,000  Descending Aus ATC (RADAR)
05:12AM -31.6616 116.9714 258° West 132 152 6,100 92 Climbing Aus ATC (RADAR)
05:13AM -31.6657 116.9466 259° West 131 151 6,100 -71 Level Aus ATC (RADAR)
05:13AM -31.6735 116.9095 256° West 138 159 6,000 -75 Descending Aus ATC (RADAR)
05:14AM -31.6747 116.8881 266° West 130 150 6,000  Level Aus ATC (RADAR)
05:14AM -31.6744 116.8626 271° West 132 152 6,000 -86 Level Aus ATC (RADAR)
05:15AM -31.6740 116.8371 271° West 132 152 5,900 -277 Descending Aus ATC (RADAR)
05:16AM -31.6752 116.8157 266° West 128 147 5,700 -522 Descending Aus ATC (RADAR)
05:16AM -31.6792 116.7873 261° West 128 147 5,300 -649 Descending Aus ATC (RADAR)
05:17AM -31.6846 116.7625 256° West 131 151 4,900 -277 Descending Aus ATC (RADAR)
05:17AM -31.6859 116.7411 266° West 129 148 5,000 92 Climbing Aus ATC (RADAR)
05:18AM -31.6887 116.7155 263° West 132 152 5,000  Level Aus ATC (RADAR)
05:19AM -31.6922 116.6831 263° West 131 151 5,000  Level Aus ATC (RADAR)
05:19AM -31.6910 116.6651 275° West 129 148 5,000  Level Aus ATC (RADAR)
05:20AM -31.6866 116.6408 282° West 126 145 5,000  Level Aus ATC (RADAR)
05:20AM -31.6815 116.6101 281° West 124 143 5,000  Level Aus ATC (RADAR)
05:21AM -31.6843 116.5857 262° West 126 145 5,000  Level Aus ATC (RADAR)
05:22AM -31.6860 116.5542 266° West 126 145 5,000  Level Aus ATC (RADAR)
05:22AM -31.6910 116.5370 251° West 131 151 5,000 -100 Level Aus ATC (RADAR)
05:23AM -31.7008 116.5135 244° Southwest 134 154 4,900  Descending Aus ATC (RADAR)
05:23AM -31.7135 116.4825 244° Southwest 137 158 5,000 86 Climbing Aus ATC (RADAR)
05:24AM -31.7187 116.4650 251° West 134 154 5,000 -94 Level Aus ATC (RADAR)
05:24AM -31.7284 116.4376 247° West 134 154 4,900  Descending Aus ATC (RADAR)
05:25AM -31.7481 116.4162 223° Southwest 151 174 5,000  Climbing Aus ATC (RADAR)
05:26AM -31.7703 116.4014 209° Southwest 156 180 4,900 -86 Descending Aus ATC (RADAR)
05:26AM -31.7920 116.3861 211° Southwest 155 178 4,900  Level Aus ATC (RADAR)
05:27AM -31.8112 116.3741 208° Southwest 156 180 4,900 92 Level Aus ATC (RADAR)
05:27AM -31.8341 116.3611 206° Southwest 156 180 5,000 87 Climbing Aus ATC (RADAR)
05:28AM -31.8559 116.3469 209° Southwest 151 174 5,000  Level Aus ATC (RADAR)
05:29AM -31.8845 116.3287 208° Southwest 156 180 5,000 -86 Level Aus ATC (RADAR)
05:29AM -31.9003 116.3186 209° Southwest 155 178 4,900 -86 Descending Aus ATC (RADAR)
05:30AM -31.9286 116.3007 208° Southwest 153 176 4,900  Level Aus ATC (RADAR)
05:30AM -31.9445 116.2913 207° Southwest 153 176 4,900 -400 Level Aus ATC (RADAR)
05:31AM -31.9671 116.2777 207° Southwest 156 180 4,500 -640 Descending Aus ATC (RADAR)
05:32AM -31.9926 116.2612 209° Southwest 156 180 4,100 -400 Descending Aus ATC (RADAR)
05:32AM -32.0149 116.2463 210° Southwest 157 181 4,000 -86 Descending Aus ATC (RADAR)
05:33AM -32.0241 116.2231 245° Southwest 138 159 4,000  Level Aus ATC (RADAR)
05:33AM -32.0183 116.1988 286° West 130 150 4,000  Level Aus ATC (RADAR)
05:34AM -32.0130 116.1749 285° West 126 145 4,000  Level Aus ATC (RADAR)
05:35AM -32.0070 116.1470 284° West 127 146 4,000 -94 Level Aus ATC (RADAR)
05:35AM -32.0049 116.1294 278° West 127 146 3,900 -92 Descending Aus ATC (RADAR)
05:36AM -32.0032 116.1004 274° West 128 147 3,900  Level Aus ATC (RADAR)
05:36AM -32.0027 116.0708 271° West 128 147 3,900  Level Aus ATC (RADAR)
05:37AM -32.0017 116.0453 273° West 129 148 3,900 86 Level Aus ATC (RADAR)
05:37AM -32.0004 116.0201 274° West 129 148 4,000 86 Climbing Aus ATC (RADAR)
05:38AM -31.9987 115.9949 274° West 128 147 4,000 -75 Level Aus ATC (RADAR)
05:39AM -31.9856 115.9683 300° West 124 143 3,900 -86 Descending Aus ATC (RADAR)
05:39AM -31.9789 115.9528 297° West 124 143 3,900 -200 Level Aus ATC (RADAR)
05:40AM -31.9696 115.9316 298° West 120 138 3,700 -514 Descending Aus ATC (RADAR)
05:40AM -31.9600 115.9100 298° West 122 140 3,300 -646 Descending Aus ATC (RADAR)
05:41AM -31.9616 115.8883 265° West 131 151 3,000 -831 Descending Aus ATC (RADAR)
05:41AM -31.9666 115.8610 258° West 139 160 2,400 -943 Descending Aus ATC (RADAR)
05:42AM -31.9715 115.8335 258° West 141 162 1,900 -771 Descending Aus ATC (RADAR)
05:43AM -31.9782 115.8068 253° West 142 163 1,500 -462 Descending Aus ATC (RADAR)
05:43AM -32.0011 115.8080 178° South 164 189 1,400  Descending Aus ATC (RADAR)
05:44AM -32.0301 115.8286 149° Southeast 162 186 1,500 87 Climbing Aus ATC (RADAR)
05:44AM -32.0476 115.8385 154° Southeast 165 190 1,500 -111 Level Aus ATC (RADAR)
05:45AM -32.0669 115.8463 161° South 146 168 1,400 -462 Descending Aus ATC (RADAR)
05:45AM -32.0873 115.8464 180° South 125 144 1,000 -600 Descending Aus ATC (RADAR)
05:46AM -32.1044 115.8528 162° South 112 129 700 -646 Descending Aus ATC (RADAR)
05:46AM -32.1064 115.8651 101° East 85 98 300 -554 Descending Aus ATC (RADAR)
05:47AM -32.0993 115.8752 50° Northeast 69 79 100 -171 Descending Aus ATC (RADAR)
05:48AM -32.0964 115.8783 42° Northeast 29 33 100  Level Aus ATC (RADAR)